sensor_id;sensor_type;location;lat;lon;timestamp;temperature;humidity
6110;DHT22;3085;49.444;11.054;2023-08-06T00:00:21;16.50;99.90
6110;DHT22;3085;49.444;11.054;2023-08-06T00:02:48;16.40;99.90
6110;DHT22;3085;49.444;11.054;2023-08-06T00:05:15;16.30;99.90
6110;DHT22;3085;49.444;11.054;2023-08-06T00:07:43;16.20;99.90
6110;DHT22;3085;49.444;11.054;2023-08-06T00:10:12;16.10;99.90
6110;DHT22;3085;49.444;11.054;2023-08-06T00:12:40;16.10;99.90
6110;DHT22;3085;49.444;11.054;2023-08-06T00:15:08;16.00;99.90
6110;DHT22;3085;49.444;11.054;2023-08-06T00:17:35;16.00;99.90
6110;DHT22;3085;49.444;11.054;2023-08-06T00:20:03;16.00;99.90
6110;DHT22;3085;49.444;11.054;2023-08-06T00:22:31;16.00;99.90
6110;DHT22;3085;49.444;11.054;2023-08-06T00:24:58;16.00;99.90
6110;DHT22;3085;49.444;11.054;2023-08-06T00:27:25;16.10;99.90
6110;DHT22;3085;49.444;11.054;2023-08-06T00:29:53;16.10;99.90
6110;DHT22;3085;49.444;11.054;2023-08-06T00:32:20;16.10;99.90
6110;DHT22;3085;49.444;11.054;2023-08-06T00:34:47;16.10;99.90
6110;DHT22;3085;49.444;11.054;2023-08-06T00:37:15;16.00;99.90
6110;DHT22;3085;49.444;11.054;2023-08-06T00:39:43;16.10;99.90
6110;DHT22;3085;49.444;11.054;2023-08-06T00:42:09;16.00;99.90
6110;DHT22;3085;49.444;11.054;2023-08-06T00:44:36;16.00;99.90
6110;DHT22;3085;49.444;11.054;2023-08-06T00:47:05;16.20;99.90
6110;DHT22;3085;49.444;11.054;2023-08-06T00:49:33;16.10;99.90
6110;DHT22;3085;49.444;11.054;2023-08-06T00:52:00;16.20;99.90
6110;DHT22;3085;49.444;11.054;2023-08-06T00:54:29;16.30;99.90
6110;DHT22;3085;49.444;11.054;2023-08-06T00:56:55;16.30;99.90
6110;DHT22;3085;49.444;11.054;2023-08-06T00:59:23;16.20;99.90
6110;DHT22;3085;49.444;11.054;2023-08-06T01:01:50;16.20;99.90
6110;DHT22;3085;49.444;11.054;2023-08-06T01:04:19;16.10;99.90
6110;DHT22;3085;49.444;11.054;2023-08-06T01:06:48;16.20;99.90
6110;DHT22;3085;49.444;11.054;2023-08-06T01:09:24;16.10;99.90
6110;DHT22;3085;49.444;11.054;2023-08-06T01:14:48;16.20;99.90
6110;DHT22;3085;49.444;11.054;2023-08-06T01:17:17;16.10;99.90
6110;DHT22;3085;49.444;11.054;2023-08-06T01:19:45;16.20;99.90
6110;DHT22;3085;49.444;11.054;2023-08-06T01:22:13;16.20;99.90
6110;DHT22;3085;49.444;11.054;2023-08-06T01:24:41;16.20;99.90
6110;DHT22;3085;49.444;11.054;2023-08-06T01:27:17;16.20;99.90
6110;DHT22;3085;49.444;11.054;2023-08-06T01:29:47;16.20;99.90
6110;DHT22;3085;49.444;11.054;2023-08-06T01:32:16;16.20;99.90
6110;DHT22;3085;49.444;11.054;2023-08-06T01:34:45;16.20;99.90
6110;DHT22;3085;49.444;11.054;2023-08-06T01:37:14;16.30;99.90
6110;DHT22;3085;49.444;11.054;2023-08-06T01:39:42;16.30;99.90
6110;DHT22;3085;49.444;11.054;2023-08-06T01:42:09;16.40;99.90
6110;DHT22;3085;49.444;11.054;2023-08-06T01:44:36;16.30;99.90
6110;DHT22;3085;49.444;11.054;2023-08-06T01:47:03;16.20;99.90
6110;DHT22;3085;49.444;11.054;2023-08-06T01:49:30;16.20;99.90
6110;DHT22;3085;49.444;11.054;2023-08-06T01:51:56;16.20;99.90
6110;DHT22;3085;49.444;11.054;2023-08-06T01:54:25;16.10;99.90
6110;DHT22;3085;49.444;11.054;2023-08-06T01:56:51;16.20;99.90
6110;DHT22;3085;49.444;11.054;2023-08-06T01:59:18;16.30;99.90
6110;DHT22;3085;49.444;11.054;2023-08-06T02:01:45;16.30;99.90
6110;DHT22;3085;49.444;11.054;2023-08-06T02:04:11;16.40;99.90
6110;DHT22;3085;49.444;11.054;2023-08-06T02:06:41;16.30;99.90
6110;DHT22;3085;49.444;11.054;2023-08-06T02:09:08;17.20;99.90
6110;DHT22;3085;49.444;11.054;2023-08-06T02:11:36;16.10;99.90
6110;DHT22;3085;49.444;11.054;2023-08-06T02:14:03;16.10;99.90
6110;DHT22;3085;49.444;11.054;2023-08-06T02:16:32;16.10;99.90
6110;DHT22;3085;49.444;11.054;2023-08-06T02:18:59;16.00;99.90
6110;DHT22;3085;49.444;11.054;2023-08-06T02:21:26;16.10;99.90
6110;DHT22;3085;49.444;11.054;2023-08-06T02:23:52;16.00;99.90
6110;DHT22;3085;49.444;11.054;2023-08-06T02:26:19;16.00;99.90
6110;DHT22;3085;49.444;11.054;2023-08-06T02:28:47;15.90;99.90
6110;DHT22;3085;49.444;11.054;2023-08-06T02:31:14;16.00;99.90
6110;DHT22;3085;49.444;11.054;2023-08-06T02:33:40;16.10;99.90
6110;DHT22;3085;49.444;11.054;2023-08-06T02:36:07;16.00;99.90
6110;DHT22;3085;49.444;11.054;2023-08-06T02:38:34;15.90;99.90
6110;DHT22;3085;49.444;11.054;2023-08-06T02:41:02;16.00;99.90
6110;DHT22;3085;49.444;11.054;2023-08-06T02:43:29;16.10;99.90
6110;DHT22;3085;49.444;11.054;2023-08-06T02:45:58;16.00;99.90
6110;DHT22;3085;49.444;11.054;2023-08-06T02:48:25;16.00;99.90
6110;DHT22;3085;49.444;11.054;2023-08-06T02:50:52;15.80;99.90
6110;DHT22;3085;49.444;11.054;2023-08-06T02:53:18;15.80;99.90
6110;DHT22;3085;49.444;11.054;2023-08-06T02:55:46;15.90;99.90
6110;DHT22;3085;49.444;11.054;2023-08-06T02:58:14;16.00;99.90
6110;DHT22;3085;49.444;11.054;2023-08-06T03:00:41;16.10;99.90
6110;DHT22;3085;49.444;11.054;2023-08-06T03:03:10;16.00;99.90
6110;DHT22;3085;49.444;11.054;2023-08-06T03:05:36;16.10;99.90
6110;DHT22;3085;49.444;11.054;2023-08-06T03:08:03;15.80;99.90
6110;DHT22;3085;49.444;11.054;2023-08-06T03:10:30;16.20;99.90
6110;DHT22;3085;49.444;11.054;2023-08-06T03:12:57;16.30;99.90
6110;DHT22;3085;49.444;11.054;2023-08-06T03:15:24;16.30;99.90
6110;DHT22;3085;49.444;11.054;2023-08-06T03:17:50;16.30;99.90
6110;DHT22;3085;49.444;11.054;2023-08-06T03:20:18;16.30;99.90
6110;DHT22;3085;49.444;11.054;2023-08-06T03:22:45;16.30;99.90
6110;DHT22;3085;49.444;11.054;2023-08-06T03:25:12;16.30;99.90
6110;DHT22;3085;49.444;11.054;2023-08-06T03:27:39;16.30;99.90
6110;DHT22;3085;49.444;11.054;2023-08-06T03:30:07;16.20;99.90
6110;DHT22;3085;49.444;11.054;2023-08-06T03:32:34;16.20;99.90
6110;DHT22;3085;49.444;11.054;2023-08-06T03:35:01;16.10;99.90
6110;DHT22;3085;49.444;11.054;2023-08-06T03:37:29;16.00;99.90
6110;DHT22;3085;49.444;11.054;2023-08-06T03:39:56;16.00;99.90
6110;DHT22;3085;49.444;11.054;2023-08-06T03:42:22;15.80;99.90
6110;DHT22;3085;49.444;11.054;2023-08-06T03:44:49;16.30;99.90
6110;DHT22;3085;49.444;11.054;2023-08-06T03:47:16;15.80;99.90
6110;DHT22;3085;49.444;11.054;2023-08-06T03:49:43;15.80;99.90
6110;DHT22;3085;49.444;11.054;2023-08-06T03:52:09;15.80;99.90
6110;DHT22;3085;49.444;11.054;2023-08-06T03:54:38;15.80;99.90
6110;DHT22;3085;49.444;11.054;2023-08-06T03:57:05;15.90;99.90
6110;DHT22;3085;49.444;11.054;2023-08-06T03:59:32;15.90;99.90
6110;DHT22;3085;49.444;11.054;2023-08-06T04:01:59;15.80;99.90
6110;DHT22;3085;49.444;11.054;2023-08-06T04:04:25;15.90;99.90
6110;DHT22;3085;49.444;11.054;2023-08-06T04:06:52;15.90;99.90
6110;DHT22;3085;49.444;11.054;2023-08-06T04:09:19;15.80;99.90
6110;DHT22;3085;49.444;11.054;2023-08-06T04:11:47;15.80;99.90
6110;DHT22;3085;49.444;11.054;2023-08-06T04:14:14;15.90;99.90
6110;DHT22;3085;49.444;11.054;2023-08-06T04:16:41;15.80;99.90
6110;DHT22;3085;49.444;11.054;2023-08-06T04:19:07;15.80;99.90
6110;DHT22;3085;49.444;11.054;2023-08-06T04:21:34;15.80;99.90
6110;DHT22;3085;49.444;11.054;2023-08-06T04:24:01;15.90;99.90
6110;DHT22;3085;49.444;11.054;2023-08-06T04:26:28;15.90;99.90
6110;DHT22;3085;49.444;11.054;2023-08-06T04:28:56;15.90;99.90
6110;DHT22;3085;49.444;11.054;2023-08-06T04:31:23;15.90;99.90
6110;DHT22;3085;49.444;11.054;2023-08-06T04:33:52;15.80;99.90
6110;DHT22;3085;49.444;11.054;2023-08-06T04:36:19;15.80;99.90
6110;DHT22;3085;49.444;11.054;2023-08-06T04:38:45;15.80;99.90
6110;DHT22;3085;49.444;11.054;2023-08-06T04:41:13;15.80;99.90
6110;DHT22;3085;49.444;11.054;2023-08-06T04:43:39;15.80;99.90
6110;DHT22;3085;49.444;11.054;2023-08-06T04:46:07;15.80;99.90
6110;DHT22;3085;49.444;11.054;2023-08-06T04:48:34;15.80;99.90
6110;DHT22;3085;49.444;11.054;2023-08-06T04:51:01;15.80;99.90
6110;DHT22;3085;49.444;11.054;2023-08-06T04:53:28;15.80;99.90
6110;DHT22;3085;49.444;11.054;2023-08-06T04:55:54;15.80;99.90
6110;DHT22;3085;49.444;11.054;2023-08-06T04:58:21;15.90;99.90
6110;DHT22;3085;49.444;11.054;2023-08-06T05:00:48;15.80;99.90
6110;DHT22;3085;49.444;11.054;2023-08-06T05:03:16;15.80;99.90
6110;DHT22;3085;49.444;11.054;2023-08-06T05:05:43;15.80;99.90
6110;DHT22;3085;49.444;11.054;2023-08-06T05:08:14;15.80;99.90
6110;DHT22;3085;49.444;11.054;2023-08-06T05:10:42;15.90;99.90
6110;DHT22;3085;49.444;11.054;2023-08-06T05:13:09;15.90;99.90
6110;DHT22;3085;49.444;11.054;2023-08-06T05:15:36;15.90;99.90
6110;DHT22;3085;49.444;11.054;2023-08-06T05:18:03;15.90;99.90
6110;DHT22;3085;49.444;11.054;2023-08-06T05:20:31;15.90;99.90
6110;DHT22;3085;49.444;11.054;2023-08-06T05:22:58;16.00;99.90
6110;DHT22;3085;49.444;11.054;2023-08-06T05:25:24;16.00;99.90
6110;DHT22;3085;49.444;11.054;2023-08-06T05:27:51;16.00;99.90
6110;DHT22;3085;49.444;11.054;2023-08-06T05:30:18;16.10;99.90
6110;DHT22;3085;49.444;11.054;2023-08-06T05:32:45;16.20;99.90
6110;DHT22;3085;49.444;11.054;2023-08-06T05:35:12;16.20;99.90
6110;DHT22;3085;49.444;11.054;2023-08-06T05:37:40;16.20;99.90
6110;DHT22;3085;49.444;11.054;2023-08-06T05:40:08;16.10;99.90
6110;DHT22;3085;49.444;11.054;2023-08-06T05:42:34;16.10;99.90
6110;DHT22;3085;49.444;11.054;2023-08-06T05:45:01;16.10;99.90
6110;DHT22;3085;49.444;11.054;2023-08-06T05:47:28;16.20;99.90
6110;DHT22;3085;49.444;11.054;2023-08-06T05:49:55;16.20;99.90
6110;DHT22;3085;49.444;11.054;2023-08-06T05:52:21;16.30;99.90
6110;DHT22;3085;49.444;11.054;2023-08-06T05:54:49;16.20;99.90
6110;DHT22;3085;49.444;11.054;2023-08-06T05:57:16;16.20;99.90
6110;DHT22;3085;49.444;11.054;2023-08-06T05:59:43;16.20;99.90
6110;DHT22;3085;49.444;11.054;2023-08-06T06:02:10;16.20;99.90
6110;DHT22;3085;49.444;11.054;2023-08-06T06:04:37;16.30;99.90
6110;DHT22;3085;49.444;11.054;2023-08-06T06:07:04;16.40;99.90
6110;DHT22;3085;49.444;11.054;2023-08-06T06:09:31;16.40;99.90
6110;DHT22;3085;49.444;11.054;2023-08-06T06:11:59;16.40;99.90
6110;DHT22;3085;49.444;11.054;2023-08-06T06:14:25;16.50;99.90
6110;DHT22;3085;49.444;11.054;2023-08-06T06:16:52;16.50;99.90
6110;DHT22;3085;49.444;11.054;2023-08-06T06:19:19;16.60;99.90
6110;DHT22;3085;49.444;11.054;2023-08-06T06:21:46;16.60;99.90
6110;DHT22;3085;49.444;11.054;2023-08-06T06:24:13;16.60;99.90
6110;DHT22;3085;49.444;11.054;2023-08-06T06:26:39;16.40;99.90
6110;DHT22;3085;49.444;11.054;2023-08-06T06:29:07;16.60;99.90
6110;DHT22;3085;49.444;11.054;2023-08-06T06:31:34;16.50;99.90
6110;DHT22;3085;49.444;11.054;2023-08-06T06:34:01;16.40;99.90
6110;DHT22;3085;49.444;11.054;2023-08-06T06:36:28;16.40;99.90
6110;DHT22;3085;49.444;11.054;2023-08-06T06:38:54;16.40;99.90
6110;DHT22;3085;49.444;11.054;2023-08-06T06:41:21;16.30;99.90
6110;DHT22;3085;49.444;11.054;2023-08-06T06:43:49;16.40;99.90
6110;DHT22;3085;49.444;11.054;2023-08-06T06:46:17;16.40;99.90
6110;DHT22;3085;49.444;11.054;2023-08-06T06:48:44;16.50;99.90
6110;DHT22;3085;49.444;11.054;2023-08-06T06:51:10;16.40;99.90
6110;DHT22;3085;49.444;11.054;2023-08-06T06:53:37;16.30;99.90
6110;DHT22;3085;49.444;11.054;2023-08-06T06:56:04;16.30;99.90
6110;DHT22;3085;49.444;11.054;2023-08-06T06:58:31;16.20;99.90
6110;DHT22;3085;49.444;11.054;2023-08-06T07:00:58;16.30;99.90
6110;DHT22;3085;49.444;11.054;2023-08-06T07:03:26;16.40;99.90
6110;DHT22;3085;49.444;11.054;2023-08-06T07:05:57;16.40;99.90
6110;DHT22;3085;49.444;11.054;2023-08-06T07:08:24;16.30;99.90
6110;DHT22;3085;49.444;11.054;2023-08-06T07:10:59;16.30;99.90
6110;DHT22;3085;49.444;11.054;2023-08-06T07:13:25;16.40;99.90
6110;DHT22;3085;49.444;11.054;2023-08-06T07:15:53;16.40;99.90
6110;DHT22;3085;49.444;11.054;2023-08-06T07:18:20;16.50;99.90
6110;DHT22;3085;49.444;11.054;2023-08-06T07:20:49;16.50;99.90
6110;DHT22;3085;49.444;11.054;2023-08-06T07:23:20;16.60;99.90
6110;DHT22;3085;49.444;11.054;2023-08-06T07:25:48;16.50;99.90
6110;DHT22;3085;49.444;11.054;2023-08-06T07:28:15;16.50;99.90
6110;DHT22;3085;49.444;11.054;2023-08-06T07:30:43;16.50;99.90
6110;DHT22;3085;49.444;11.054;2023-08-06T07:33:10;16.40;99.90
6110;DHT22;3085;49.444;11.054;2023-08-06T07:35:38;16.50;99.90
6110;DHT22;3085;49.444;11.054;2023-08-06T07:38:06;16.40;99.90
6110;DHT22;3085;49.444;11.054;2023-08-06T07:40:34;16.50;99.90
6110;DHT22;3085;49.444;11.054;2023-08-06T07:43:04;16.60;99.90
6110;DHT22;3085;49.444;11.054;2023-08-06T07:45:33;16.70;99.90
6110;DHT22;3085;49.444;11.054;2023-08-06T07:48:00;16.70;99.90
6110;DHT22;3085;49.444;11.054;2023-08-06T07:50:27;16.80;99.90
6110;DHT22;3085;49.444;11.054;2023-08-06T07:52:54;16.80;99.90
6110;DHT22;3085;49.444;11.054;2023-08-06T07:55:22;16.80;99.90
6110;DHT22;3085;49.444;11.054;2023-08-06T07:57:49;16.80;99.90
6110;DHT22;3085;49.444;11.054;2023-08-06T08:00:16;16.80;99.90
6110;DHT22;3085;49.444;11.054;2023-08-06T08:02:42;16.90;99.90
6110;DHT22;3085;49.444;11.054;2023-08-06T08:05:09;17.10;99.90
6110;DHT22;3085;49.444;11.054;2023-08-06T08:07:36;17.00;99.90
6110;DHT22;3085;49.444;11.054;2023-08-06T08:10:03;17.30;99.90
6110;DHT22;3085;49.444;11.054;2023-08-06T08:12:33;17.30;99.90
6110;DHT22;3085;49.444;11.054;2023-08-06T08:15:00;17.30;99.90
6110;DHT22;3085;49.444;11.054;2023-08-06T08:17:27;17.30;99.90
6110;DHT22;3085;49.444;11.054;2023-08-06T08:19:54;16.90;99.90
6110;DHT22;3085;49.444;11.054;2023-08-06T08:22:20;16.60;99.90
6110;DHT22;3085;49.444;11.054;2023-08-06T08:24:47;16.20;99.90
6110;DHT22;3085;49.444;11.054;2023-08-06T08:27:14;16.20;99.90
6110;DHT22;3085;49.444;11.054;2023-08-06T08:29:43;16.10;99.90
6110;DHT22;3085;49.444;11.054;2023-08-06T08:32:09;16.10;99.90
6110;DHT22;3085;49.444;11.054;2023-08-06T08:34:36;16.10;99.90
6110;DHT22;3085;49.444;11.054;2023-08-06T08:37:03;16.10;99.90
6110;DHT22;3085;49.444;11.054;2023-08-06T08:39:31;16.10;99.90
6110;DHT22;3085;49.444;11.054;2023-08-06T08:41:58;16.30;99.90
6110;DHT22;3085;49.444;11.054;2023-08-06T08:44:26;16.20;99.90
6110;DHT22;3085;49.444;11.054;2023-08-06T08:46:56;16.30;99.90
6110;DHT22;3085;49.444;11.054;2023-08-06T08:49:24;16.20;99.90
6110;DHT22;3085;49.444;11.054;2023-08-06T08:51:52;16.20;99.90
6110;DHT22;3085;49.444;11.054;2023-08-06T08:54:20;16.10;99.90
6110;DHT22;3085;49.444;11.054;2023-08-06T08:56:49;16.20;99.90
6110;DHT22;3085;49.444;11.054;2023-08-06T08:59:16;16.20;99.90
6110;DHT22;3085;49.444;11.054;2023-08-06T09:01:44;16.20;99.90
6110;DHT22;3085;49.444;11.054;2023-08-06T09:04:17;16.20;99.90
6110;DHT22;3085;49.444;11.054;2023-08-06T09:06:47;16.20;99.90
6110;DHT22;3085;49.444;11.054;2023-08-06T09:09:18;16.30;99.90
6110;DHT22;3085;49.444;11.054;2023-08-06T09:11:48;16.20;99.90
6110;DHT22;3085;49.444;11.054;2023-08-06T09:14:16;16.30;99.90
6110;DHT22;3085;49.444;11.054;2023-08-06T09:16:43;16.30;99.90
6110;DHT22;3085;49.444;11.054;2023-08-06T09:19:11;16.10;99.90
6110;DHT22;3085;49.444;11.054;2023-08-06T09:21:40;16.50;99.90
6110;DHT22;3085;49.444;11.054;2023-08-06T09:24:10;16.60;99.90
6110;DHT22;3085;49.444;11.054;2023-08-06T09:26:38;16.80;99.90
6110;DHT22;3085;49.444;11.054;2023-08-06T09:29:05;17.00;99.90
6110;DHT22;3085;49.444;11.054;2023-08-06T09:31:33;17.00;99.90
6110;DHT22;3085;49.444;11.054;2023-08-06T09:34:00;17.00;99.90
6110;DHT22;3085;49.444;11.054;2023-08-06T09:36:27;17.00;99.90
6110;DHT22;3085;49.444;11.054;2023-08-06T09:38:56;16.90;99.90
6110;DHT22;3085;49.444;11.054;2023-08-06T09:41:26;16.90;99.90
6110;DHT22;3085;49.444;11.054;2023-08-06T09:43:54;16.80;99.90
6110;DHT22;3085;49.444;11.054;2023-08-06T09:46:21;17.00;99.90
6110;DHT22;3085;49.444;11.054;2023-08-06T09:48:48;17.00;99.90
6110;DHT22;3085;49.444;11.054;2023-08-06T09:51:17;17.00;99.90
6110;DHT22;3085;49.444;11.054;2023-08-06T09:53:46;16.90;99.90
6110;DHT22;3085;49.444;11.054;2023-08-06T09:56:15;16.80;99.90
6110;DHT22;3085;49.444;11.054;2023-08-06T09:58:44;16.90;99.90
6110;DHT22;3085;49.444;11.054;2023-08-06T10:01:14;17.00;99.90
6110;DHT22;3085;49.444;11.054;2023-08-06T10:03:42;17.00;99.90
6110;DHT22;3085;49.444;11.054;2023-08-06T10:06:10;17.10;99.90
6110;DHT22;3085;49.444;11.054;2023-08-06T10:08:37;17.50;99.90
6110;DHT22;3085;49.444;11.054;2023-08-06T10:11:06;17.40;99.90
6110;DHT22;3085;49.444;11.054;2023-08-06T10:13:34;17.40;99.90
6110;DHT22;3085;49.444;11.054;2023-08-06T10:16:02;17.50;99.90
6110;DHT22;3085;49.444;11.054;2023-08-06T10:18:30;17.60;99.90
6110;DHT22;3085;49.444;11.054;2023-08-06T10:20:59;17.70;99.90
6110;DHT22;3085;49.444;11.054;2023-08-06T10:23:33;17.60;99.90
6110;DHT22;3085;49.444;11.054;2023-08-06T10:26:00;17.70;99.90
6110;DHT22;3085;49.444;11.054;2023-08-06T10:28:36;17.80;99.90
6110;DHT22;3085;49.444;11.054;2023-08-06T10:31:04;17.80;99.90
6110;DHT22;3085;49.444;11.054;2023-08-06T10:33:41;17.70;99.90
6110;DHT22;3085;49.444;11.054;2023-08-06T10:36:09;17.70;99.90
6110;DHT22;3085;49.444;11.054;2023-08-06T10:38:44;17.80;99.90
6110;DHT22;3085;49.444;11.054;2023-08-06T10:41:15;17.70;99.90
6110;DHT22;3085;49.444;11.054;2023-08-06T10:43:47;17.60;99.90
6110;DHT22;3085;49.444;11.054;2023-08-06T10:46:22;17.50;99.90
6110;DHT22;3085;49.444;11.054;2023-08-06T10:48:49;17.30;99.90
6110;DHT22;3085;49.444;11.054;2023-08-06T10:51:16;17.50;99.90
6110;DHT22;3085;49.444;11.054;2023-08-06T10:53:44;17.60;99.90
6110;DHT22;3085;49.444;11.054;2023-08-06T10:56:14;17.60;99.90
6110;DHT22;3085;49.444;11.054;2023-08-06T10:58:41;18.20;99.90
6110;DHT22;3085;49.444;11.054;2023-08-06T11:01:10;17.90;99.90
6110;DHT22;3085;49.444;11.054;2023-08-06T11:03:38;17.70;99.90
6110;DHT22;3085;49.444;11.054;2023-08-06T11:06:07;17.70;99.90
6110;DHT22;3085;49.444;11.054;2023-08-06T11:08:35;17.60;99.90
6110;DHT22;3085;49.444;11.054;2023-08-06T11:11:09;17.60;99.90
6110;DHT22;3085;49.444;11.054;2023-08-06T11:13:38;17.60;99.90
6110;DHT22;3085;49.444;11.054;2023-08-06T11:16:05;17.50;99.90
6110;DHT22;3085;49.444;11.054;2023-08-06T11:18:34;17.50;99.90
6110;DHT22;3085;49.444;11.054;2023-08-06T11:21:01;17.50;99.90
6110;DHT22;3085;49.444;11.054;2023-08-06T11:23:29;17.50;99.90
6110;DHT22;3085;49.444;11.054;2023-08-06T11:25:56;18.20;99.90
6110;DHT22;3085;49.444;11.054;2023-08-06T11:28:25;17.60;99.90
6110;DHT22;3085;49.444;11.054;2023-08-06T11:30:55;17.70;99.90
6110;DHT22;3085;49.444;11.054;2023-08-06T11:33:26;18.70;99.90
6110;DHT22;3085;49.444;11.054;2023-08-06T11:35:57;17.70;99.90
6110;DHT22;3085;49.444;11.054;2023-08-06T11:38:25;17.60;99.90
6110;DHT22;3085;49.444;11.054;2023-08-06T11:40:52;17.40;99.90
6110;DHT22;3085;49.444;11.054;2023-08-06T11:43:19;17.10;99.90
6110;DHT22;3085;49.444;11.054;2023-08-06T11:45:46;17.10;99.90
6110;DHT22;3085;49.444;11.054;2023-08-06T11:48:13;17.20;99.90
6110;DHT22;3085;49.444;11.054;2023-08-06T11:50:40;17.30;99.90
6110;DHT22;3085;49.444;11.054;2023-08-06T11:53:12;17.60;99.90
6110;DHT22;3085;49.444;11.054;2023-08-06T11:55:40;17.70;99.90
6110;DHT22;3085;49.444;11.054;2023-08-06T11:58:07;17.90;99.90
6110;DHT22;3085;49.444;11.054;2023-08-06T12:00:33;17.90;99.90
6110;DHT22;3085;49.444;11.054;2023-08-06T12:03:00;17.70;99.90
6110;DHT22;3085;49.444;11.054;2023-08-06T12:05:31;17.70;99.90
6110;DHT22;3085;49.444;11.054;2023-08-06T12:08:00;17.70;99.90
6110;DHT22;3085;49.444;11.054;2023-08-06T12:10:30;17.50;99.90
6110;DHT22;3085;49.444;11.054;2023-08-06T12:12:57;17.30;99.90
6110;DHT22;3085;49.444;11.054;2023-08-06T12:15:24;17.10;99.90
6110;DHT22;3085;49.444;11.054;2023-08-06T12:17:51;16.90;99.90
6110;DHT22;3085;49.444;11.054;2023-08-06T12:20:18;16.70;99.90
6110;DHT22;3085;49.444;11.054;2023-08-06T12:22:44;16.70;99.90
6110;DHT22;3085;49.444;11.054;2023-08-06T12:25:11;16.60;99.90
6110;DHT22;3085;49.444;11.054;2023-08-06T12:27:41;16.50;99.90
6110;DHT22;3085;49.444;11.054;2023-08-06T12:30:09;16.80;99.90
6110;DHT22;3085;49.444;11.054;2023-08-06T12:32:37;16.90;99.90
6110;DHT22;3085;49.444;11.054;2023-08-06T12:35:05;17.10;99.90
6110;DHT22;3085;49.444;11.054;2023-08-06T12:37:33;17.20;99.90
6110;DHT22;3085;49.444;11.054;2023-08-06T12:40:00;17.20;99.90
6110;DHT22;3085;49.444;11.054;2023-08-06T12:42:27;17.30;99.90
6110;DHT22;3085;49.444;11.054;2023-08-06T12:44:55;17.30;99.90
6110;DHT22;3085;49.444;11.054;2023-08-06T12:47:22;17.10;99.90
6110;DHT22;3085;49.444;11.054;2023-08-06T12:49:49;17.20;99.90
6110;DHT22;3085;49.444;11.054;2023-08-06T12:52:19;16.00;99.90
6110;DHT22;3085;49.444;11.054;2023-08-06T12:54:46;17.20;99.90
6110;DHT22;3085;49.444;11.054;2023-08-06T12:57:12;17.30;99.90
6110;DHT22;3085;49.444;11.054;2023-08-06T12:59:40;17.40;99.90
6110;DHT22;3085;49.444;11.054;2023-08-06T13:02:08;17.30;99.90
6110;DHT22;3085;49.444;11.054;2023-08-06T13:04:35;17.30;99.90
6110;DHT22;3085;49.444;11.054;2023-08-06T13:07:01;17.30;99.90
6110;DHT22;3085;49.444;11.054;2023-08-06T13:09:28;17.20;99.90
6110;DHT22;3085;49.444;11.054;2023-08-06T13:11:56;17.10;99.90
6110;DHT22;3085;49.444;11.054;2023-08-06T13:14:23;16.90;99.90
6110;DHT22;3085;49.444;11.054;2023-08-06T13:16:50;16.80;99.90
6110;DHT22;3085;49.444;11.054;2023-08-06T13:19:18;16.80;99.90
6110;DHT22;3085;49.444;11.054;2023-08-06T13:22:02;16.90;99.90
6110;DHT22;3085;49.444;11.054;2023-08-06T13:24:31;16.90;99.90
6110;DHT22;3085;49.444;11.054;2023-08-06T13:26:58;16.90;99.90
6110;DHT22;3085;49.444;11.054;2023-08-06T13:29:25;17.60;99.90
6110;DHT22;3085;49.444;11.054;2023-08-06T13:31:52;17.50;99.90
6110;DHT22;3085;49.444;11.054;2023-08-06T13:34:21;16.90;99.90
6110;DHT22;3085;49.444;11.054;2023-08-06T13:36:48;16.70;99.90
6110;DHT22;3085;49.444;11.054;2023-08-06T13:39:15;16.80;99.90
6110;DHT22;3085;49.444;11.054;2023-08-06T13:41:43;16.60;99.90
6110;DHT22;3085;49.444;11.054;2023-08-06T13:44:10;16.50;99.90
6110;DHT22;3085;49.444;11.054;2023-08-06T13:46:39;16.50;99.90
6110;DHT22;3085;49.444;11.054;2023-08-06T13:49:06;16.50;99.90
6110;DHT22;3085;49.444;11.054;2023-08-06T13:51:34;16.40;99.90
6110;DHT22;3085;49.444;11.054;2023-08-06T13:54:01;16.40;99.90
6110;DHT22;3085;49.444;11.054;2023-08-06T13:56:28;16.30;99.90
6110;DHT22;3085;49.444;11.054;2023-08-06T13:58:55;16.30;99.90
6110;DHT22;3085;49.444;11.054;2023-08-06T14:01:22;16.30;99.90
6110;DHT22;3085;49.444;11.054;2023-08-06T14:03:48;16.20;99.90
6110;DHT22;3085;49.444;11.054;2023-08-06T14:06:15;16.00;99.90
6110;DHT22;3085;49.444;11.054;2023-08-06T14:08:43;15.90;99.90
6110;DHT22;3085;49.444;11.054;2023-08-06T14:11:10;15.90;99.90
6110;DHT22;3085;49.444;11.054;2023-08-06T14:13:37;15.80;99.90
6110;DHT22;3085;49.444;11.054;2023-08-06T14:16:04;15.70;99.90
6110;DHT22;3085;49.444;11.054;2023-08-06T14:18:31;15.50;99.90
6110;DHT22;3085;49.444;11.054;2023-08-06T14:20:58;15.40;99.90
6110;DHT22;3085;49.444;11.054;2023-08-06T14:23:25;15.30;99.90
6110;DHT22;3085;49.444;11.054;2023-08-06T14:25:53;15.20;99.90
6110;DHT22;3085;49.444;11.054;2023-08-06T14:28:20;15.30;99.90
6110;DHT22;3085;49.444;11.054;2023-08-06T14:30:47;15.30;99.90
6110;DHT22;3085;49.444;11.054;2023-08-06T14:33:13;15.20;99.90
6110;DHT22;3085;49.444;11.054;2023-08-06T14:35:40;15.30;99.90
6110;DHT22;3085;49.444;11.054;2023-08-06T14:38:07;15.30;99.90
6110;DHT22;3085;49.444;11.054;2023-08-06T14:40:34;15.30;99.90
6110;DHT22;3085;49.444;11.054;2023-08-06T14:43:05;15.20;99.90
6110;DHT22;3085;49.444;11.054;2023-08-06T14:45:32;15.10;99.90
6110;DHT22;3085;49.444;11.054;2023-08-06T14:47:58;15.20;99.90
6110;DHT22;3085;49.444;11.054;2023-08-06T14:50:25;13.70;99.90
6110;DHT22;3085;49.444;11.054;2023-08-06T14:52:52;15.10;99.90
6110;DHT22;3085;49.444;11.054;2023-08-06T14:55:24;15.10;99.90
6110;DHT22;3085;49.444;11.054;2023-08-06T14:57:51;16.20;99.90
6110;DHT22;3085;49.444;11.054;2023-08-06T15:00:19;15.10;99.90
6110;DHT22;3085;49.444;11.054;2023-08-06T15:02:46;15.10;99.90
6110;DHT22;3085;49.444;11.054;2023-08-06T15:05:13;15.00;99.90
6110;DHT22;3085;49.444;11.054;2023-08-06T15:07:40;15.00;99.90
6110;DHT22;3085;49.444;11.054;2023-08-06T15:10:07;15.10;99.90
6110;DHT22;3085;49.444;11.054;2023-08-06T15:12:34;15.10;99.90
6110;DHT22;3085;49.444;11.054;2023-08-06T15:15:01;15.20;99.90
6110;DHT22;3085;49.444;11.054;2023-08-06T15:17:29;15.30;99.90
6110;DHT22;3085;49.444;11.054;2023-08-06T15:19:56;15.40;99.90
6110;DHT22;3085;49.444;11.054;2023-08-06T15:22:24;16.60;99.90
6110;DHT22;3085;49.444;11.054;2023-08-06T15:24:51;15.40;99.90
6110;DHT22;3085;49.444;11.054;2023-08-06T15:27:18;15.40;99.90
6110;DHT22;3085;49.444;11.054;2023-08-06T15:29:45;15.40;99.90
6110;DHT22;3085;49.444;11.054;2023-08-06T15:32:11;15.40;99.90
6110;DHT22;3085;49.444;11.054;2023-08-06T15:34:40;15.40;99.90
6110;DHT22;3085;49.444;11.054;2023-08-06T15:37:07;15.40;99.90
6110;DHT22;3085;49.444;11.054;2023-08-06T15:39:34;15.30;99.90
6110;DHT22;3085;49.444;11.054;2023-08-06T15:42:00;16.20;99.90
6110;DHT22;3085;49.444;11.054;2023-08-06T15:44:27;15.50;99.90
6110;DHT22;3085;49.444;11.054;2023-08-06T15:46:54;15.60;99.90
6110;DHT22;3085;49.444;11.054;2023-08-06T15:49:21;15.60;99.90